createdAt,value
2023-08-03T00:02:55.687Z,20.12
2023-08-03T00:06:57.604Z,20.08
2023-08-03T00:11:01.811Z,20.09
2023-08-03T00:15:04.451Z,20.12
2023-08-03T00:19:06.531Z,20.14
2023-08-03T00:23:08.689Z,20.16
2023-08-03T00:27:11.008Z,20.20
2023-08-03T00:31:13.193Z,20.16
2023-08-03T00:35:14.895Z,20.12
2023-08-03T00:39:16.951Z,20.03
2023-08-03T00:43:19.196Z,19.98
2023-08-03T00:47:22.186Z,19.91
2023-08-03T00:51:24.156Z,19.95
2023-08-03T00:55:26.239Z,20.02
2023-08-03T00:59:29.273Z,20.13
2023-08-03T01:03:31.404Z,20.01
2023-08-03T01:07:35.530Z,20.09
2023-08-03T01:11:37.845Z,20.06
2023-08-03T01:15:40.278Z,20.03
2023-08-03T01:19:42.838Z,20.09
2023-08-03T01:23:44.896Z,20.06
2023-08-03T01:27:48.719Z,20.10
2023-08-03T01:31:55.296Z,20.11
2023-08-03T01:35:59.357Z,19.99
2023-08-03T01:40:01.452Z,19.95
2023-08-03T01:44:25.525Z,19.95
2023-08-03T01:48:27.578Z,19.97
2023-08-03T01:52:31.170Z,19.97
2023-08-03T01:56:33.178Z,19.80
2023-08-03T02:00:35.105Z,19.96
2023-08-03T02:04:37.239Z,19.91
2023-08-03T02:08:40.715Z,19.97
2023-08-03T02:12:42.861Z,20.04
2023-08-03T02:16:44.735Z,20.03
2023-08-03T02:20:46.967Z,19.97
2023-08-03T02:24:49.120Z,20.12
2023-08-03T02:28:51.154Z,20.10
2023-08-03T02:32:53.407Z,20.09
2023-08-03T02:36:58.614Z,20.14
2023-08-03T02:41:01.695Z,20.18
2023-08-03T02:45:08.307Z,20.22
2023-08-03T02:49:11.017Z,20.20
2023-08-03T02:53:13.448Z,20.20
2023-08-03T02:57:19.616Z,20.21
2023-08-03T03:01:24.371Z,20.23
2023-08-03T03:05:29.654Z,20.37
2023-08-03T03:09:31.855Z,20.41
2023-08-03T03:13:35.923Z,20.33
2023-08-03T03:17:40.039Z,20.37
2023-08-03T03:21:43.067Z,20.40
2023-08-03T03:25:45.521Z,20.29
2023-08-03T03:29:48.153Z,20.40
2023-08-03T03:33:50.529Z,20.39
2023-08-03T03:37:53.306Z,20.30
2023-08-03T03:42:00.253Z,20.37
2023-08-03T03:46:03.337Z,20.37
2023-08-03T03:50:06.640Z,20.33
2023-08-03T03:54:08.842Z,20.31
2023-08-03T03:58:11.718Z,20.24
2023-08-03T04:02:14.590Z,20.15
2023-08-03T04:06:16.764Z,20.32
2023-08-03T04:10:18.912Z,20.43
2023-08-03T04:14:21.053Z,20.55
2023-08-03T04:18:23.308Z,20.59
2023-08-03T04:22:25.722Z,20.65
2023-08-03T04:26:27.792Z,20.71
2023-08-03T04:30:31.382Z,20.66
2023-08-03T04:34:33.685Z,20.56
2023-08-03T04:38:40.906Z,20.77
2023-08-03T04:42:43.088Z,20.76
2023-08-03T04:46:45.989Z,20.71
2023-08-03T04:50:48.237Z,21.07
2023-08-03T04:54:52.649Z,21.00
2023-08-03T04:58:54.792Z,21.08
2023-08-03T05:02:57.010Z,21.03
2023-08-03T05:06:59.214Z,21.07
2023-08-03T05:11:01.898Z,21.20
2023-08-03T05:15:09.847Z,21.24
2023-08-03T05:19:13.371Z,21.24
2023-08-03T05:23:15.776Z,21.19
2023-08-03T05:27:17.941Z,21.33
2023-08-03T05:31:20.176Z,21.22
2023-08-03T05:35:22.491Z,21.19
2023-08-03T05:39:27.516Z,21.31
2023-08-03T05:43:29.599Z,21.17
2023-08-03T05:47:32.034Z,21.17
2023-08-03T05:51:34.173Z,21.15
2023-08-03T05:55:36.772Z,21.08
2023-08-03T05:59:39.815Z,21.28
2023-08-03T06:03:45.327Z,21.25
2023-08-03T06:07:47.312Z,21.38
2023-08-03T06:11:49.519Z,21.50
2023-08-03T06:15:51.710Z,21.64
2023-08-03T06:19:53.607Z,21.78
2023-08-03T06:23:59.354Z,21.98
2023-08-03T06:28:03.653Z,21.94
2023-08-03T06:32:07.015Z,21.97
2023-08-03T06:36:12.474Z,21.84
2023-08-03T06:40:15.005Z,22.04
2023-08-03T06:44:17.415Z,22.14
2023-08-03T06:48:20.654Z,22.21
2023-08-03T06:52:22.894Z,22.11
2023-08-03T06:56:25.104Z,22.36
2023-08-03T07:00:27.674Z,22.73
2023-08-03T07:04:30.042Z,22.76
2023-08-03T07:08:32.638Z,23.08
2023-08-03T07:12:35.562Z,23.50
2023-08-03T07:16:38.181Z,23.40
2023-08-03T07:20:40.456Z,23.32
2023-08-03T07:24:42.524Z,23.33
2023-08-03T07:28:44.583Z,23.50
2023-08-03T07:32:47.220Z,23.63
2023-08-03T07:36:56.632Z,23.36
2023-08-03T07:40:58.995Z,23.38
2023-08-03T07:45:02.274Z,23.50
2023-08-03T07:49:04.513Z,23.60
2023-08-03T07:53:06.583Z,23.48
2023-08-03T07:57:11.082Z,23.45
2023-08-03T08:01:13.843Z,23.43
2023-08-03T08:05:16.047Z,23.39
2023-08-03T08:09:18.174Z,23.39
2023-08-03T08:13:20.234Z,23.16
2023-08-03T08:17:22.411Z,23.32
2023-08-03T08:21:24.446Z,23.30
2023-08-03T08:25:26.730Z,23.49
2023-08-03T08:29:28.880Z,23.40
2023-08-03T08:33:31.008Z,23.36
2023-08-03T08:37:33.068Z,23.45
2023-08-03T08:41:40.722Z,23.36
2023-08-03T08:45:42.723Z,23.17
2023-08-03T08:49:47.647Z,23.02
2023-08-03T09:02:05.326Z,22.69
2023-08-03T09:10:13.009Z,22.60
2023-08-03T09:14:15.634Z,22.66
2023-08-03T09:18:19.755Z,22.63
2023-08-03T09:31:02.039Z,22.09
2023-08-03T09:35:17.126Z,21.69
2023-08-03T09:47:33.648Z,21.26
2023-08-03T09:52:04.368Z,21.17
2023-08-03T09:56:02.498Z,21.05
2023-08-03T10:00:07.954Z,21.08
2023-08-03T10:04:21.129Z,21.10
2023-08-03T10:08:31.521Z,21.09
2023-08-03T10:12:45.458Z,21.07
2023-08-03T10:16:48.187Z,21.09
2023-08-03T10:20:50.735Z,21.00
2023-08-03T10:25:18.504Z,21.02
2023-08-03T10:29:51.830Z,21.02
2023-08-03T10:33:54.019Z,20.91
2023-08-03T10:38:01.316Z,20.83
2023-08-03T10:42:20.534Z,20.79
2023-08-03T10:46:42.496Z,20.82
2023-08-03T10:51:02.348Z,20.87
2023-08-03T10:55:26.667Z,20.60
2023-08-03T10:59:28.965Z,20.61
2023-08-03T11:03:38.167Z,20.91
2023-08-03T11:07:46.388Z,20.68
2023-08-03T11:11:48.273Z,20.59
2023-08-03T11:15:50.514Z,20.59
2023-08-03T11:19:54.110Z,20.44
2023-08-03T11:23:56.152Z,20.50
2023-08-03T11:27:58.213Z,20.20
2023-08-03T11:32:00.457Z,20.43
2023-08-03T11:36:02.291Z,20.67
2023-08-03T11:40:06.597Z,20.53
2023-08-03T11:44:09.022Z,20.69
2023-08-03T11:48:11.309Z,20.67
2023-08-03T11:52:20.808Z,20.29
2023-08-03T11:56:30.881Z,20.18
2023-08-03T12:00:41.944Z,20.16
2023-08-03T12:08:50.351Z,20.13
2023-08-03T12:12:52.458Z,20.31
2023-08-03T12:16:58.978Z,20.43
2023-08-03T12:21:04.212Z,20.48
2023-08-03T12:25:06.917Z,20.30
2023-08-03T12:29:08.984Z,20.30
2023-08-03T12:33:11.823Z,20.52
2023-08-03T12:37:16.735Z,20.46
2023-08-03T12:41:21.806Z,20.49
2023-08-03T12:45:24.982Z,20.49
2023-08-03T12:49:27.137Z,20.43
2023-08-03T12:53:29.550Z,20.58
2023-08-03T12:57:31.730Z,20.42
2023-08-03T13:01:34.816Z,20.50
2023-08-03T13:05:39.148Z,20.53
2023-08-03T13:09:41.884Z,20.45
2023-08-03T13:13:44.248Z,20.59
2023-08-03T13:17:46.425Z,20.35
2023-08-03T13:21:48.810Z,20.59
2023-08-03T13:25:50.898Z,20.54
2023-08-03T13:29:53.704Z,20.52
2023-08-03T13:33:55.721Z,20.80
2023-08-03T13:37:57.899Z,20.69
2023-08-03T13:42:00.167Z,20.59
2023-08-03T13:46:02.414Z,20.60
2023-08-03T13:50:04.893Z,20.54
2023-08-03T13:54:07.136Z,20.51
2023-08-03T13:58:13.023Z,20.41
2023-08-03T14:07:10.444Z,20.50
2023-08-03T14:19:10.358Z,20.78
2023-08-03T14:23:12.428Z,20.86
2023-08-03T14:27:23.289Z,20.81
2023-08-03T14:31:25.840Z,20.65
2023-08-03T14:39:34.550Z,21.02
2023-08-03T14:43:43.769Z,21.80
2023-08-03T15:00:07.349Z,21.62
2023-08-03T15:04:12.339Z,22.09
2023-08-03T15:08:16.254Z,22.16
2023-08-03T15:12:18.353Z,22.34
2023-08-03T15:20:35.585Z,22.47
2023-08-03T15:24:39.688Z,22.40
2023-08-03T15:28:52.589Z,22.45
2023-08-03T15:37:00.908Z,22.15
2023-08-03T15:41:06.395Z,22.31
2023-08-03T15:45:13.354Z,22.36
2023-08-03T15:49:21.894Z,22.41
2023-08-03T15:53:33.777Z,22.64
2023-08-03T15:57:40.829Z,22.54
2023-08-03T16:01:43.085Z,22.25
2023-08-03T16:05:46.253Z,22.51
2023-08-03T16:09:50.014Z,22.74
2023-08-03T16:13:52.229Z,22.53
2023-08-03T16:17:54.350Z,22.26
2023-08-03T16:21:56.066Z,22.55
2023-08-03T16:25:58.150Z,22.66
2023-08-03T16:30:02.867Z,22.55
2023-08-03T16:38:13.842Z,22.50
2023-08-03T16:42:16.151Z,22.40
2023-08-03T16:46:18.432Z,22.36
2023-08-03T16:50:22.328Z,22.20
2023-08-03T16:54:24.443Z,21.93
2023-08-03T16:58:26.659Z,21.90
2023-08-03T17:02:28.757Z,21.95
2023-08-03T17:06:31.259Z,21.84
2023-08-03T17:10:34.318Z,21.66
2023-08-03T17:14:37.300Z,21.68
2023-08-03T17:18:39.346Z,21.79
2023-08-03T17:22:41.689Z,21.82
2023-08-03T17:26:44.665Z,21.71
2023-08-03T17:30:47.118Z,21.41
2023-08-03T17:34:49.374Z,21.27
2023-08-03T17:38:51.346Z,21.16
2023-08-03T17:42:53.491Z,21.13
2023-08-03T17:46:58.112Z,21.01
2023-08-03T17:51:05.191Z,20.98
2023-08-03T17:55:07.626Z,20.92
2023-08-03T17:59:10.203Z,20.84
2023-08-03T18:03:12.440Z,20.70
2023-08-03T18:07:14.189Z,20.65
2023-08-03T18:11:16.704Z,20.54
2023-08-03T18:15:18.823Z,20.57
2023-08-03T18:19:21.178Z,20.34
2023-08-03T18:23:24.480Z,20.34
2023-08-03T18:27:26.367Z,20.30
2023-08-03T18:31:28.661Z,20.20
2023-08-03T18:35:30.661Z,20.24
2023-08-03T18:39:33.006Z,20.16
2023-08-03T18:43:35.865Z,20.11
2023-08-03T18:47:37.729Z,20.01
2023-08-03T18:51:39.992Z,19.78
2023-08-03T18:55:42.344Z,19.69
2023-08-03T18:59:44.201Z,19.64
2023-08-03T19:03:48.343Z,19.59
2023-08-03T19:07:50.347Z,19.42
2023-08-03T19:11:52.617Z,19.42
2023-08-03T19:15:55.218Z,19.42
2023-08-03T19:19:57.207Z,19.29
2023-08-03T19:24:00.676Z,19.31
2023-08-03T19:28:03.530Z,19.11
2023-08-03T19:32:05.848Z,19.20
2023-08-03T19:36:08.839Z,19.12
2023-08-03T19:40:11.273Z,19.15
2023-08-03T19:44:13.101Z,18.97
2023-08-03T19:48:15.264Z,19.12
2023-08-03T20:12:44.159Z,18.72
2023-08-03T20:16:46.381Z,18.53
2023-08-03T20:20:48.862Z,18.63
2023-08-03T20:24:51.423Z,18.58
2023-08-03T20:28:53.687Z,18.43
2023-08-03T20:32:55.935Z,18.52
2023-08-03T20:36:58.211Z,18.34
2023-08-03T20:45:06.017Z,18.27
2023-08-03T20:49:08.413Z,18.45
2023-08-03T20:53:10.424Z,18.33
2023-08-03T20:57:12.566Z,18.25
2023-08-03T21:01:14.898Z,18.21
2023-08-03T21:05:22.851Z,18.11
2023-08-03T21:09:25.434Z,18.11
2023-08-03T21:13:27.866Z,18.02
2023-08-03T21:17:29.896Z,18.04
2023-08-03T21:21:32.004Z,18.08
2023-08-03T21:25:34.189Z,17.97
2023-08-03T21:29:36.313Z,18.11
2023-08-03T21:33:38.542Z,18.03
2023-08-03T21:37:40.761Z,17.88
2023-08-03T21:41:42.895Z,17.72
2023-08-03T21:45:52.592Z,17.69
2023-08-03T21:49:55.777Z,17.65
2023-08-03T21:53:57.917Z,17.67
2023-08-03T21:57:59.979Z,17.72
2023-08-03T22:02:01.826Z,17.81
2023-08-03T22:06:04.572Z,17.70
2023-08-03T22:10:10.043Z,17.75
2023-08-03T22:14:12.116Z,17.73
2023-08-03T22:18:14.456Z,17.80
2023-08-03T22:22:16.606Z,17.72
2023-08-03T22:26:20.927Z,17.72
2023-08-03T22:30:23.066Z,17.62
2023-08-03T22:34:25.294Z,17.71
2023-08-03T22:38:27.525Z,17.70
2023-08-03T22:42:32.585Z,17.44
2023-08-03T22:46:34.905Z,17.60
2023-08-03T22:50:40.246Z,17.47
2023-08-03T22:54:42.013Z,17.51
2023-08-03T22:58:44.516Z,17.47
2023-08-03T23:02:46.860Z,17.64
2023-08-03T23:06:50.574Z,17.44
2023-08-03T23:10:52.641Z,17.48
2023-08-03T23:14:54.537Z,17.50
2023-08-03T23:18:56.583Z,17.62
2023-08-03T23:22:58.707Z,17.68
2023-08-03T23:27:00.735Z,18.05
2023-08-03T23:31:03.426Z,18.10
2023-08-03T23:35:05.613Z,18.14
2023-08-03T23:39:07.800Z,18.17
2023-08-03T23:43:09.756Z,18.19
2023-08-03T23:47:11.619Z,18.28
2023-08-03T23:51:13.626Z,18.44
2023-08-03T23:55:15.892Z,18.46
2023-08-03T23:59:17.652Z,18.54
